MUC | München Airways

 METAR UND TAF INFORMATION

METAR FOR LRIA
ADDS - METARS form results

(0926 UTC 21 May 2019)
Data provider http://aviationweather.gov/metar/data/
 
METAR text: LRIA 210900Z 20012KT 160V240 9999 BKN040 22/10 Q1008
Conditions at: LRIA (IASI , RO) observed 0900 UTC 21 May 2019
Temperature: 22.0°C (72°F)
Dewpoint: 10.0°C (50°F) [RH = 46%]
Pressure (altimeter): 29.76 inches Hg (1008.0 mb)
Winds: from the SSW (200 degrees) at 14 MPH (12 knots; 6.2 m/s)
Visibility: 6 or more miles (10+ km)
Ceiling: 4000 feet AGL
Clouds: broken clouds at 4000 feet AGL
Weather: no significant weather observed at this time

METAR text: LRIA 210830Z 21008KT 170V260 9999 SCT034 22/11 Q1008
Conditions at: LRIA (IASI , RO) observed 0830 UTC 21 May 2019
Temperature: 22.0°C (72°F)
Dewpoint: 11.0°C (52°F) [RH = 50%]
Pressure (altimeter): 29.76 inches Hg (1008.0 mb)
Winds: from the SSW (210 degrees) at 9 MPH (8 knots; 4.1 m/s)
Visibility: 6 or more miles (10+ km)
Ceiling: at least 12,000 feet AGL
Clouds: scattered clouds at 3400 feet AGL
Weather: no significant weather observed at this time

Forecast for: LRIA (IASI , RO)
Text: TAF LRIA 210800Z 2109/2118 20010KT 9999 SCT035
Forecast period: 0900 to 1800 UTC 21 May 2019
Forecast type: FROM: standard forecast or significant change
Winds: from the SSW (200 degrees) at 12 MPH (10 knots; 5.1 m/s)
Visibility: 6 or more miles 10+ km)
Ceiling: at least 12,000 feet AGL
Clouds: scattered clouds at 3500 feet AGL
Weather: no significant weather forecast for this period
Text: TEMPO 2110/2116 SCT035CB
Forecast period: 1000 to 1600 UTC 21 May 2019
Forecast type: TEMPORARY: The following changes expected for less than half the time period
Visibility: missing
Ceiling: at least 12,000 feet AGL
Clouds: scattered clouds at 3500 feet AGL
Weather: no significant weather forecast for this period

 FLUGHAFENKARTE

 RUNWAY INFORMATION
Runway 15 Runway length 5841 ft Runway width 98 ft
Runway elevation 397 ft Runway displaced threshold 0 ft Runway heading 154
Runway 33 Runway length 5841 ft Runway width 98 ft
Runway elevation 340 ft Runway displaced threshold 0 ft Runway heading 334

 AIRPORT FREQUENCIES
Type APP Name APP Frequency 119.2 MHZ
Type GCA Name PRECISION Frequency 118.8 MHZ
Type TWR Name TWR Frequency 119.2 MHZ

 AIRPORT NEAR NAVIGATION AIDS
Type NDB Name Iasi Frequency 391 KHZ